sensor_id;sensor_type;location;lat;lon;timestamp;pressure;altitude;pressure_sealevel;temperature;humidity
42001;BME280;27689;48.390;10.856;2023-03-02T00:02:28;96108.66;;;1.16;92.63
42001;BME280;27689;48.390;10.856;2023-03-02T00:05:13;96102.75;;;1.14;92.62
42001;BME280;27689;48.390;10.856;2023-03-02T00:07:58;96100.59;;;1.06;92.66
42001;BME280;27689;48.390;10.856;2023-03-02T00:10:43;96116.72;;;1.10;92.59
42001;BME280;27689;48.390;10.856;2023-03-02T00:13:31;96112.50;;;1.09;92.60
42001;BME280;27689;48.390;10.856;2023-03-02T00:16:16;96116.91;;;1.06;92.45
42001;BME280;27689;48.390;10.856;2023-03-02T00:19:01;96105.66;;;1.08;92.15
42001;BME280;27689;48.390;10.856;2023-03-02T00:21:44;96116.56;;;1.13;92.00
42001;BME280;27689;48.390;10.856;2023-03-02T00:24:28;96117.38;;;1.13;92.10
42001;BME280;27689;48.390;10.856;2023-03-02T00:27:13;96109.47;;;1.16;92.47
42001;BME280;27689;48.390;10.856;2023-03-02T00:29:57;96107.91;;;1.14;92.84
42001;BME280;27689;48.390;10.856;2023-03-02T00:32:41;96101.44;;;1.06;92.91
42001;BME280;27689;48.390;10.856;2023-03-02T00:35:25;96090.94;;;1.10;92.75
42001;BME280;27689;48.390;10.856;2023-03-02T00:38:12;96106.91;;;1.16;92.68
42001;BME280;27689;48.390;10.856;2023-03-02T00:40:56;96096.75;;;1.13;92.99
42001;BME280;27689;48.390;10.856;2023-03-02T00:43:41;96099.50;;;1.10;92.70
42001;BME280;27689;48.390;10.856;2023-03-02T00:46:25;96091.56;;;0.99;92.78
42001;BME280;27689;48.390;10.856;2023-03-02T00:49:11;96099.06;;;1.03;93.28
42001;BME280;27689;48.390;10.856;2023-03-02T00:51:55;96096.72;;;0.99;93.37
42001;BME280;27689;48.390;10.856;2023-03-02T00:54:39;96103.34;;;0.89;93.35
42001;BME280;27689;48.390;10.856;2023-03-02T00:57:24;96100.38;;;0.81;94.06
42001;BME280;27689;48.390;10.856;2023-03-02T01:00:08;96100.19;;;0.84;93.67
42001;BME280;27689;48.390;10.856;2023-03-02T01:02:53;96097.69;;;0.82;93.67
42001;BME280;27689;48.390;10.856;2023-03-02T01:05:37;96102.19;;;0.79;93.80
42001;BME280;27689;48.390;10.856;2023-03-02T01:08:21;96098.03;;;0.76;94.07
42001;BME280;27689;48.390;10.856;2023-03-02T01:11:15;96087.00;;;0.74;93.69
42001;BME280;27689;48.390;10.856;2023-03-02T01:13:59;96079.66;;;0.82;93.59
42001;BME280;27689;48.390;10.856;2023-03-02T01:16:43;96084.31;;;0.76;93.87
42001;BME280;27689;48.390;10.856;2023-03-02T01:19:27;96077.50;;;0.75;93.90
42001;BME280;27689;48.390;10.856;2023-03-02T01:22:11;96075.28;;;0.68;94.09
42001;BME280;27689;48.390;10.856;2023-03-02T01:24:55;96084.94;;;0.65;94.75
42001;BME280;27689;48.390;10.856;2023-03-02T01:27:39;96072.97;;;0.64;94.23
42001;BME280;27689;48.390;10.856;2023-03-02T01:30:23;96065.97;;;0.66;94.37
42001;BME280;27689;48.390;10.856;2023-03-02T01:33:07;96066.63;;;0.69;94.52
42001;BME280;27689;48.390;10.856;2023-03-02T01:35:51;96058.81;;;0.71;94.53
42001;BME280;27689;48.390;10.856;2023-03-02T01:38:35;96053.00;;;0.67;94.83
42001;BME280;27689;48.390;10.856;2023-03-02T01:41:19;96044.28;;;0.70;94.73
42001;BME280;27689;48.390;10.856;2023-03-02T01:44:03;96036.97;;;0.62;95.28
42001;BME280;27689;48.390;10.856;2023-03-02T01:46:47;96041.88;;;0.67;95.05
42001;BME280;27689;48.390;10.856;2023-03-02T01:49:34;96047.59;;;0.72;95.12
42001;BME280;27689;48.390;10.856;2023-03-02T01:52:20;96049.78;;;0.64;95.65
42001;BME280;27689;48.390;10.856;2023-03-02T01:55:09;96045.59;;;0.61;95.40
42001;BME280;27689;48.390;10.856;2023-03-02T01:57:55;96039.09;;;0.56;95.52
42001;BME280;27689;48.390;10.856;2023-03-02T02:00:39;96053.44;;;0.60;95.84
42001;BME280;27689;48.390;10.856;2023-03-02T02:03:26;96040.03;;;0.69;96.28
42001;BME280;27689;48.390;10.856;2023-03-02T02:06:21;96044.06;;;0.59;96.33
42001;BME280;27689;48.390;10.856;2023-03-02T02:09:08;96034.59;;;0.59;96.72
42001;BME280;27689;48.390;10.856;2023-03-02T02:11:55;96034.31;;;0.64;96.51
42001;BME280;27689;48.390;10.856;2023-03-02T02:14:39;96031.56;;;0.67;96.36
42001;BME280;27689;48.390;10.856;2023-03-02T02:17:23;96032.34;;;0.53;97.00
42001;BME280;27689;48.390;10.856;2023-03-02T02:20:30;96028.94;;;0.53;97.10
42001;BME280;27689;48.390;10.856;2023-03-02T02:23:27;96030.31;;;0.44;97.80
42001;BME280;27689;48.390;10.856;2023-03-02T02:26:21;96028.53;;;0.45;97.45
42001;BME280;27689;48.390;10.856;2023-03-02T02:29:14;96022.47;;;0.46;97.13
42001;BME280;27689;48.390;10.856;2023-03-02T02:32:15;96015.22;;;0.52;97.04
42001;BME280;27689;48.390;10.856;2023-03-02T02:35:13;96025.16;;;0.44;96.88
42001;BME280;27689;48.390;10.856;2023-03-02T02:38:05;96019.16;;;0.44;97.17
42001;BME280;27689;48.390;10.856;2023-03-02T02:40:54;96020.81;;;0.45;97.10
42001;BME280;27689;48.390;10.856;2023-03-02T02:43:38;96016.69;;;0.42;96.95
42001;BME280;27689;48.390;10.856;2023-03-02T02:46:23;96010.69;;;0.42;97.28
42001;BME280;27689;48.390;10.856;2023-03-02T02:49:34;96009.03;;;0.41;97.25
42001;BME280;27689;48.390;10.856;2023-03-02T02:52:20;96013.53;;;0.37;97.23
42001;BME280;27689;48.390;10.856;2023-03-02T02:55:04;96014.44;;;0.36;97.63
42001;BME280;27689;48.390;10.856;2023-03-02T02:57:53;96008.47;;;0.35;97.49
42001;BME280;27689;48.390;10.856;2023-03-02T03:00:39;96006.13;;;0.31;97.33
42001;BME280;27689;48.390;10.856;2023-03-02T03:06:22;96014.97;;;0.27;97.40
42001;BME280;27689;48.390;10.856;2023-03-02T03:09:10;96010.81;;;0.24;97.68
42001;BME280;27689;48.390;10.856;2023-03-02T03:11:57;96004.19;;;0.20;97.80
42001;BME280;27689;48.390;10.856;2023-03-02T03:14:44;96001.44;;;0.23;98.00
42001;BME280;27689;48.390;10.856;2023-03-02T03:17:29;96001.59;;;0.20;97.77
42001;BME280;27689;48.390;10.856;2023-03-02T03:20:14;95996.63;;;0.17;97.89
42001;BME280;27689;48.390;10.856;2023-03-02T03:22:59;96000.78;;;0.20;97.78
42001;BME280;27689;48.390;10.856;2023-03-02T03:25:43;95994.03;;;0.17;98.12
42001;BME280;27689;48.390;10.856;2023-03-02T03:28:27;96001.75;;;0.17;98.30
42001;BME280;27689;48.390;10.856;2023-03-02T03:31:11;95995.06;;;0.15;98.75
42001;BME280;27689;48.390;10.856;2023-03-02T03:33:56;96001.03;;;0.15;98.70
42001;BME280;27689;48.390;10.856;2023-03-02T03:36:43;96005.47;;;0.13;98.27
42001;BME280;27689;48.390;10.856;2023-03-02T03:39:28;96001.22;;;0.12;98.32
42001;BME280;27689;48.390;10.856;2023-03-02T03:42:12;95992.00;;;0.08;98.49
42001;BME280;27689;48.390;10.856;2023-03-02T03:44:56;95992.75;;;0.10;98.65
42001;BME280;27689;48.390;10.856;2023-03-02T03:47:40;95999.47;;;0.13;98.82
42001;BME280;27689;48.390;10.856;2023-03-02T03:50:24;95997.97;;;0.09;98.73
42001;BME280;27689;48.390;10.856;2023-03-02T03:53:08;95987.75;;;0.07;98.89
42001;BME280;27689;48.390;10.856;2023-03-02T03:55:52;95988.50;;;0.09;98.94
42001;BME280;27689;48.390;10.856;2023-03-02T03:58:37;95980.13;;;0.06;98.68
42001;BME280;27689;48.390;10.856;2023-03-02T04:01:21;95993.81;;;0.06;98.79
42001;BME280;27689;48.390;10.856;2023-03-02T04:04:08;95994.72;;;0.05;99.15
42001;BME280;27689;48.390;10.856;2023-03-02T04:06:53;95993.75;;;0.08;98.88
42001;BME280;27689;48.390;10.856;2023-03-02T04:09:37;95992.00;;;0.08;98.74
42001;BME280;27689;48.390;10.856;2023-03-02T04:12:21;96002.22;;;0.10;98.77
42001;BME280;27689;48.390;10.856;2023-03-02T04:15:07;95997.97;;;0.09;99.01
42001;BME280;27689;48.390;10.856;2023-03-02T04:17:52;96001.63;;;0.05;98.94
42001;BME280;27689;48.390;10.856;2023-03-02T04:20:36;95996.66;;;0.02;98.99
42001;BME280;27689;48.390;10.856;2023-03-02T04:23:19;95995.81;;;0.01;98.98
42001;BME280;27689;48.390;10.856;2023-03-02T04:26:03;96008.28;;;0.09;99.05
42001;BME280;27689;48.390;10.856;2023-03-02T04:28:47;96008.34;;;0.07;99.03
42001;BME280;27689;48.390;10.856;2023-03-02T04:31:34;95999.72;;;0.08;99.00
42001;BME280;27689;48.390;10.856;2023-03-02T04:34:18;96004.72;;;0.11;99.18
42001;BME280;27689;48.390;10.856;2023-03-02T04:37:02;96006.69;;;0.06;99.59
42001;BME280;27689;48.390;10.856;2023-03-02T04:39:46;95999.56;;;0.11;99.49
42001;BME280;27689;48.390;10.856;2023-03-02T04:42:33;96003.13;;;0.09;99.49
42001;BME280;27689;48.390;10.856;2023-03-02T04:45:17;96001.91;;;0.00;99.59
42001;BME280;27689;48.390;10.856;2023-03-02T04:48:01;96000.72;;;0.06;99.46
42001;BME280;27689;48.390;10.856;2023-03-02T04:50:45;95992.41;;;0.00;99.20
42001;BME280;27689;48.390;10.856;2023-03-02T04:53:29;95992.31;;;0.02;99.52
42001;BME280;27689;48.390;10.856;2023-03-02T04:56:13;95996.84;;;-0.02;99.64
42001;BME280;27689;48.390;10.856;2023-03-02T04:58:57;95992.59;;;-0.03;99.40
42001;BME280;27689;48.390;10.856;2023-03-02T05:01:41;95998.59;;;-0.02;99.55
42001;BME280;27689;48.390;10.856;2023-03-02T05:04:27;96001.31;;;-0.05;99.28
42001;BME280;27689;48.390;10.856;2023-03-02T05:07:11;95995.50;;;-0.09;99.66
42001;BME280;27689;48.390;10.856;2023-03-02T05:09:56;95997.25;;;-0.09;100.00
42001;BME280;27689;48.390;10.856;2023-03-02T05:12:40;95997.00;;;-0.05;99.98
42001;BME280;27689;48.390;10.856;2023-03-02T05:15:45;95988.69;;;-0.10;100.00
42001;BME280;27689;48.390;10.856;2023-03-02T05:18:30;95987.19;;;-0.14;100.00
42001;BME280;27689;48.390;10.856;2023-03-02T05:21:15;95995.94;;;-0.16;100.00
42001;BME280;27689;48.390;10.856;2023-03-02T05:23:59;95996.84;;;-0.17;100.00
42001;BME280;27689;48.390;10.856;2023-03-02T05:26:43;95986.72;;;-0.20;100.00
42001;BME280;27689;48.390;10.856;2023-03-02T05:29:27;95989.13;;;-0.17;100.00
42001;BME280;27689;48.390;10.856;2023-03-02T05:32:11;95984.25;;;-0.22;100.00
42001;BME280;27689;48.390;10.856;2023-03-02T05:34:55;95981.00;;;-0.25;100.00
42001;BME280;27689;48.390;10.856;2023-03-02T05:37:39;95991.97;;;-0.22;100.00
42001;BME280;27689;48.390;10.856;2023-03-02T05:40:25;95986.06;;;-0.24;100.00
42001;BME280;27689;48.390;10.856;2023-03-02T05:43:14;95991.38;;;-0.27;100.00
42001;BME280;27689;48.390;10.856;2023-03-02T05:45:59;95998.34;;;-0.29;100.00
42001;BME280;27689;48.390;10.856;2023-03-02T05:48:43;96001.59;;;-0.25;100.00
42001;BME280;27689;48.390;10.856;2023-03-02T05:51:28;96002.50;;;-0.26;100.00
42001;BME280;27689;48.390;10.856;2023-03-02T05:54:12;96008.63;;;-0.29;100.00
42001;BME280;27689;48.390;10.856;2023-03-02T05:56:56;96011.31;;;-0.30;100.00
42001;BME280;27689;48.390;10.856;2023-03-02T05:59:40;96002.94;;;-0.34;100.00
42001;BME280;27689;48.390;10.856;2023-03-02T06:02:24;96000.34;;;-0.34;100.00
42001;BME280;27689;48.390;10.856;2023-03-02T06:05:11;96010.50;;;-0.31;100.00
42001;BME280;27689;48.390;10.856;2023-03-02T06:07:55;96015.78;;;-0.34;100.00
42001;BME280;27689;48.390;10.856;2023-03-02T06:10:39;96012.31;;;-0.33;100.00
42001;BME280;27689;48.390;10.856;2023-03-02T06:13:23;96021.50;;;-0.29;100.00
42001;BME280;27689;48.390;10.856;2023-03-02T06:16:07;96018.28;;;-0.32;100.00
42001;BME280;27689;48.390;10.856;2023-03-02T06:18:51;96019.88;;;-0.30;100.00
42001;BME280;27689;48.390;10.856;2023-03-02T06:21:35;96013.78;;;-0.29;100.00
42001;BME280;27689;48.390;10.856;2023-03-02T06:24:19;96019.94;;;-0.31;100.00
42001;BME280;27689;48.390;10.856;2023-03-02T06:27:03;96016.34;;;-0.29;100.00
42001;BME280;27689;48.390;10.856;2023-03-02T06:29:47;96028.22;;;-0.26;100.00
42001;BME280;27689;48.390;10.856;2023-03-02T06:32:32;96043.53;;;-0.23;100.00
42001;BME280;27689;48.390;10.856;2023-03-02T06:35:17;96039.94;;;-0.21;100.00
42001;BME280;27689;48.390;10.856;2023-03-02T06:38:01;96035.56;;;-0.19;100.00
42001;BME280;27689;48.390;10.856;2023-03-02T06:40:45;96035.28;;;-0.14;100.00
42001;BME280;27689;48.390;10.856;2023-03-02T06:43:29;96031.06;;;-0.15;100.00
42001;BME280;27689;48.390;10.856;2023-03-02T06:46:13;96032.38;;;-0.08;100.00
42001;BME280;27689;48.390;10.856;2023-03-02T06:48:57;96026.66;;;-0.13;100.00
42001;BME280;27689;48.390;10.856;2023-03-02T06:51:41;96040.03;;;-0.07;100.00
42001;BME280;27689;48.390;10.856;2023-03-02T06:54:25;96048.97;;;0.02;100.00
42001;BME280;27689;48.390;10.856;2023-03-02T06:57:09;96040.09;;;0.08;100.00
42001;BME280;27689;48.390;10.856;2023-03-02T06:59:53;96028.81;;;0.10;100.00
42001;BME280;27689;48.390;10.856;2023-03-02T07:02:37;96026.88;;;0.14;100.00
42001;BME280;27689;48.390;10.856;2023-03-02T07:05:21;96034.25;;;0.20;100.00
42001;BME280;27689;48.390;10.856;2023-03-02T07:08:07;96037.66;;;0.20;100.00
42001;BME280;27689;48.390;10.856;2023-03-02T07:10:50;96039.06;;;0.26;100.00
42001;BME280;27689;48.390;10.856;2023-03-02T07:13:35;96044.28;;;0.40;100.00
42001;BME280;27689;48.390;10.856;2023-03-02T07:16:20;96046.94;;;0.39;100.00
42001;BME280;27689;48.390;10.856;2023-03-02T07:19:04;96041.41;;;0.45;100.00
42001;BME280;27689;48.390;10.856;2023-03-02T07:21:48;96037.75;;;0.49;100.00
42001;BME280;27689;48.390;10.856;2023-03-02T07:24:32;96035.94;;;0.51;100.00
42001;BME280;27689;48.390;10.856;2023-03-02T07:27:16;96049.22;;;0.59;100.00
42001;BME280;27689;48.390;10.856;2023-03-02T07:30:00;96050.50;;;0.66;100.00
42001;BME280;27689;48.390;10.856;2023-03-02T07:32:45;96051.84;;;0.73;100.00
42001;BME280;27689;48.390;10.856;2023-03-02T07:35:29;96045.31;;;0.82;100.00
42001;BME280;27689;48.390;10.856;2023-03-02T07:38:13;96046.78;;;0.86;100.00
42001;BME280;27689;48.390;10.856;2023-03-02T07:40:57;96054.06;;;0.93;100.00
42001;BME280;27689;48.390;10.856;2023-03-02T07:43:41;96051.13;;;0.99;100.00
42001;BME280;27689;48.390;10.856;2023-03-02T07:46:25;96047.81;;;1.12;99.11
42001;BME280;27689;48.390;10.856;2023-03-02T07:49:09;96052.25;;;1.24;99.34
42001;BME280;27689;48.390;10.856;2023-03-02T07:51:53;96060.16;;;1.21;99.75
42001;BME280;27689;48.390;10.856;2023-03-02T07:54:38;96063.22;;;1.27;100.00
42001;BME280;27689;48.390;10.856;2023-03-02T07:57:22;96060.66;;;1.41;100.00
42001;BME280;27689;48.390;10.856;2023-03-02T08:00:07;96062.03;;;1.61;99.06
42001;BME280;27689;48.390;10.856;2023-03-02T08:02:52;96058.41;;;1.78;99.41
42001;BME280;27689;48.390;10.856;2023-03-02T08:05:37;96060.13;;;1.92;97.62
42001;BME280;27689;48.390;10.856;2023-03-02T08:08:22;96048.28;;;2.02;98.26
42001;BME280;27689;48.390;10.856;2023-03-02T08:11:13;96053.22;;;2.19;96.72
42001;BME280;27689;48.390;10.856;2023-03-02T08:13:59;96054.75;;;2.36;97.13
42001;BME280;27689;48.390;10.856;2023-03-02T08:16:43;96059.84;;;2.50;96.53
42001;BME280;27689;48.390;10.856;2023-03-02T08:19:28;96054.81;;;2.74;95.53
42001;BME280;27689;48.390;10.856;2023-03-02T08:22:12;96055.28;;;2.93;95.37
42001;BME280;27689;48.390;10.856;2023-03-02T08:24:56;96051.78;;;3.07;94.29
42001;BME280;27689;48.390;10.856;2023-03-02T08:27:40;96051.66;;;3.21;93.32
42001;BME280;27689;48.390;10.856;2023-03-02T08:30:24;96048.03;;;3.36;92.93
42001;BME280;27689;48.390;10.856;2023-03-02T08:33:08;96043.78;;;3.48;91.04
42001;BME280;27689;48.390;10.856;2023-03-02T08:35:58;96041.97;;;3.74;92.28
42001;BME280;27689;48.390;10.856;2023-03-02T08:38:43;96047.31;;;3.96;92.43
42001;BME280;27689;48.390;10.856;2023-03-02T08:41:27;96042.09;;;4.09;89.53
42001;BME280;27689;48.390;10.856;2023-03-02T08:44:11;96046.84;;;4.15;88.97
42001;BME280;27689;48.390;10.856;2023-03-02T08:46:55;96037.16;;;4.30;91.25
42001;BME280;27689;48.390;10.856;2023-03-02T08:49:39;96046.06;;;4.49;88.48
42001;BME280;27689;48.390;10.856;2023-03-02T08:52:23;96046.94;;;4.61;87.80
42001;BME280;27689;48.390;10.856;2023-03-02T08:55:08;96033.50;;;4.67;86.63
42001;BME280;27689;48.390;10.856;2023-03-02T08:57:52;96036.25;;;4.77;87.47
42001;BME280;27689;48.390;10.856;2023-03-02T09:00:36;96034.47;;;4.77;85.21
42001;BME280;27689;48.390;10.856;2023-03-02T09:03:20;96029.06;;;4.80;85.13
42001;BME280;27689;48.390;10.856;2023-03-02T09:06:04;96039.84;;;4.87;85.83
42001;BME280;27689;48.390;10.856;2023-03-02T09:08:48;96033.03;;;5.08;84.92
42001;BME280;27689;48.390;10.856;2023-03-02T09:11:32;96033.53;;;5.24;85.52
42001;BME280;27689;48.390;10.856;2023-03-02T09:14:17;96032.97;;;5.54;84.97
42001;BME280;27689;48.390;10.856;2023-03-02T09:17:00;96030.84;;;5.71;84.43
42001;BME280;27689;48.390;10.856;2023-03-02T09:19:44;96029.09;;;5.93;83.26
42001;BME280;27689;48.390;10.856;2023-03-02T09:22:28;96027.59;;;6.12;80.21
42001;BME280;27689;48.390;10.856;2023-03-02T09:25:14;96032.31;;;6.29;78.61
42001;BME280;27689;48.390;10.856;2023-03-02T09:27:58;96036.41;;;6.43;80.22
42001;BME280;27689;48.390;10.856;2023-03-02T09:30:51;96037.53;;;6.61;78.48
42001;BME280;27689;48.390;10.856;2023-03-02T09:33:35;96037.75;;;6.90;78.92
42001;BME280;27689;48.390;10.856;2023-03-02T09:36:21;96038.16;;;6.42;76.35
42001;BME280;27689;48.390;10.856;2023-03-02T09:39:05;96033.91;;;6.73;77.62
42001;BME280;27689;48.390;10.856;2023-03-02T09:42:19;96031.16;;;7.06;78.11
42001;BME280;27689;48.390;10.856;2023-03-02T09:54:20;96027.09;;;7.44;74.35
42001;BME280;27689;48.390;10.856;2023-03-02T09:57:20;96025.19;;;7.76;72.25
42001;BME280;27689;48.390;10.856;2023-03-02T10:00:14;96016.09;;;8.11;74.23
42001;BME280;27689;48.390;10.856;2023-03-02T10:03:02;96024.00;;;8.49;73.27
42001;BME280;27689;48.390;10.856;2023-03-02T10:05:53;96014.81;;;8.55;71.77
42001;BME280;27689;48.390;10.856;2023-03-02T10:08:37;96027.31;;;8.80;71.44
42001;BME280;27689;48.390;10.856;2023-03-02T10:11:36;96021.97;;;9.01;69.08
42001;BME280;27689;48.390;10.856;2023-03-02T10:14:29;96016.63;;;8.74;68.77
42001;BME280;27689;48.390;10.856;2023-03-02T10:35:22;96028.34;;;9.45;68.07
42001;BME280;27689;48.390;10.856;2023-03-02T10:38:13;96033.16;;;9.40;67.25
42001;BME280;27689;48.390;10.856;2023-03-02T10:41:02;96030.50;;;9.60;66.75
42001;BME280;27689;48.390;10.856;2023-03-02T10:43:51;96034.50;;;9.91;66.90
42001;BME280;27689;48.390;10.856;2023-03-02T10:46:42;96032.47;;;9.85;66.68
42001;BME280;27689;48.390;10.856;2023-03-02T10:49:29;96019.41;;;9.38;64.29
42001;BME280;27689;48.390;10.856;2023-03-02T10:52:16;96029.06;;;9.28;64.50
42001;BME280;27689;48.390;10.856;2023-03-02T10:55:14;96027.13;;;9.30;65.54
42001;BME280;27689;48.390;10.856;2023-03-02T10:58:04;96015.63;;;9.60;67.27
42001;BME280;27689;48.390;10.856;2023-03-02T11:01:03;96016.38;;;10.07;65.63
42001;BME280;27689;48.390;10.856;2023-03-02T11:03:56;96015.78;;;9.59;64.05
42001;BME280;27689;48.390;10.856;2023-03-02T11:06:41;96014.53;;;9.90;66.06
42001;BME280;27689;48.390;10.856;2023-03-02T11:09:24;96016.44;;;10.25;62.98
42001;BME280;27689;48.390;10.856;2023-03-02T11:12:20;96006.56;;;9.82;60.62
42001;BME280;27689;48.390;10.856;2023-03-02T11:15:15;96015.38;;;9.81;62.62
42001;BME280;27689;48.390;10.856;2023-03-02T11:20:46;95993.13;;;10.67;62.11
42001;BME280;27689;48.390;10.856;2023-03-02T11:23:57;95997.22;;;10.87;60.07
42001;BME280;27689;48.390;10.856;2023-03-02T11:38:20;95999.50;;;11.52;59.79
42001;BME280;27689;48.390;10.856;2023-03-02T11:41:28;95994.91;;;10.84;57.83
42001;BME280;27689;48.390;10.856;2023-03-02T11:44:16;95997.53;;;10.49;59.05
42001;BME280;27689;48.390;10.856;2023-03-02T11:47:06;95993.72;;;11.22;62.48
42001;BME280;27689;48.390;10.856;2023-03-02T11:49:55;95985.59;;;11.34;57.18
42001;BME280;27689;48.390;10.856;2023-03-02T11:52:45;95981.84;;;10.49;58.75
42001;BME280;27689;48.390;10.856;2023-03-02T11:55:37;95987.00;;;10.58;58.96
42001;BME280;27689;48.390;10.856;2023-03-02T11:58:25;95974.25;;;11.25;62.45
42001;BME280;27689;48.390;10.856;2023-03-02T12:01:16;95981.06;;;11.70;60.30
42001;BME280;27689;48.390;10.856;2023-03-02T12:04:31;95980.34;;;11.85;58.19
42001;BME280;27689;48.390;10.856;2023-03-02T12:07:19;95984.22;;;11.47;56.45
42001;BME280;27689;48.390;10.856;2023-03-02T12:10:24;95971.41;;;11.18;58.02
42001;BME280;27689;48.390;10.856;2023-03-02T12:13:19;95963.94;;;11.57;57.95
42001;BME280;27689;48.390;10.856;2023-03-02T12:16:34;95964.81;;;12.08;56.24
42001;BME280;27689;48.390;10.856;2023-03-02T12:19:39;95968.16;;;11.76;55.12
42001;BME280;27689;48.390;10.856;2023-03-02T12:22:29;95962.88;;;12.18;58.22
42001;BME280;27689;48.390;10.856;2023-03-02T12:28:03;95963.78;;;11.85;58.06
42001;BME280;27689;48.390;10.856;2023-03-02T12:31:37;95955.56;;;12.54;57.93
42001;BME280;27689;48.390;10.856;2023-03-02T12:34:36;95965.59;;;12.91;56.61
42001;BME280;27689;48.390;10.856;2023-03-02T12:37:25;95956.41;;;13.03;54.08
42001;BME280;27689;48.390;10.856;2023-03-02T12:43:30;95949.63;;;13.09;53.19
42001;BME280;27689;48.390;10.856;2023-03-02T12:46:28;95953.44;;;12.82;54.24
42001;BME280;27689;48.390;10.856;2023-03-02T12:49:20;95941.59;;;12.54;54.70
42001;BME280;27689;48.390;10.856;2023-03-02T12:52:33;95945.72;;;12.64;53.53
42001;BME280;27689;48.390;10.856;2023-03-02T12:55:18;95946.03;;;12.69;53.05
42001;BME280;27689;48.390;10.856;2023-03-02T12:58:02;95942.91;;;12.82;53.80
42001;BME280;27689;48.390;10.856;2023-03-02T13:00:52;95944.56;;;12.43;53.64
42001;BME280;27689;48.390;10.856;2023-03-02T13:03:44;95944.88;;;12.64;54.99
42001;BME280;27689;48.390;10.856;2023-03-02T13:06:30;95941.28;;;12.89;53.47
42001;BME280;27689;48.390;10.856;2023-03-02T13:09:15;95938.44;;;13.39;54.54
42001;BME280;27689;48.390;10.856;2023-03-02T13:11:59;95930.78;;;13.69;54.06
42001;BME280;27689;48.390;10.856;2023-03-02T13:14:49;95928.88;;;13.94;51.63
42001;BME280;27689;48.390;10.856;2023-03-02T13:17:34;95932.19;;;13.88;52.59
42001;BME280;27689;48.390;10.856;2023-03-02T13:20:19;95938.72;;;14.00;51.30
42001;BME280;27689;48.390;10.856;2023-03-02T13:23:04;95937.47;;;13.88;50.82
42001;BME280;27689;48.390;10.856;2023-03-02T13:25:49;95942.88;;;13.94;51.00
42001;BME280;27689;48.390;10.856;2023-03-02T13:28:37;95939.91;;;13.42;50.49
42001;BME280;27689;48.390;10.856;2023-03-02T13:31:22;95941.56;;;13.43;50.86
42001;BME280;27689;48.390;10.856;2023-03-02T13:34:20;95942.56;;;13.34;50.97
42001;BME280;27689;48.390;10.856;2023-03-02T13:37:22;95935.69;;;13.00;51.25
42001;BME280;27689;48.390;10.856;2023-03-02T13:51:44;95936.66;;;11.76;56.84
42001;BME280;27689;48.390;10.856;2023-03-02T13:54:32;95932.13;;;11.60;58.29
42001;BME280;27689;48.390;10.856;2023-03-02T13:57:27;95943.63;;;11.34;58.57
42001;BME280;27689;48.390;10.856;2023-03-02T14:00:17;95940.34;;;10.80;60.56
42001;BME280;27689;48.390;10.856;2023-03-02T14:03:11;95937.78;;;10.88;61.03
42001;BME280;27689;48.390;10.856;2023-03-02T14:06:03;95946.31;;;11.16;60.03
42001;BME280;27689;48.390;10.856;2023-03-02T14:08:48;95934.69;;;11.18;59.29
42001;BME280;27689;48.390;10.856;2023-03-02T14:11:42;95939.44;;;10.71;60.68
42001;BME280;27689;48.390;10.856;2023-03-02T14:14:30;95934.44;;;11.04;60.47
42001;BME280;27689;48.390;10.856;2023-03-02T14:17:21;95933.34;;;10.88;60.22
42001;BME280;27689;48.390;10.856;2023-03-02T14:20:08;95935.31;;;10.86;60.95
42001;BME280;27689;48.390;10.856;2023-03-02T14:22:56;95928.22;;;10.79;61.01
42001;BME280;27689;48.390;10.856;2023-03-02T14:25:40;95933.56;;;10.95;60.29
42001;BME280;27689;48.390;10.856;2023-03-02T14:28:31;95921.47;;;11.02;60.55
42001;BME280;27689;48.390;10.856;2023-03-02T14:31:18;95930.47;;;11.00;60.70
42001;BME280;27689;48.390;10.856;2023-03-02T14:34:02;95925.63;;;10.61;60.55
42001;BME280;27689;48.390;10.856;2023-03-02T14:36:51;95930.19;;;10.59;60.82
42001;BME280;27689;48.390;10.856;2023-03-02T14:39:42;95933.59;;;10.77;61.13
42001;BME280;27689;48.390;10.856;2023-03-02T14:42:27;95920.56;;;10.85;60.95
42001;BME280;27689;48.390;10.856;2023-03-02T14:45:11;95930.72;;;10.88;60.59
42001;BME280;27689;48.390;10.856;2023-03-02T14:47:55;95922.19;;;10.86;61.19
42001;BME280;27689;48.390;10.856;2023-03-02T14:50:43;95917.94;;;10.85;59.70
42001;BME280;27689;48.390;10.856;2023-03-02T14:53:31;95919.16;;;10.99;61.11
42001;BME280;27689;48.390;10.856;2023-03-02T14:56:19;95921.19;;;11.05;60.31
42001;BME280;27689;48.390;10.856;2023-03-02T14:59:11;95922.22;;;11.12;60.14
42001;BME280;27689;48.390;10.856;2023-03-02T15:01:56;95919.34;;;10.98;61.17
42001;BME280;27689;48.390;10.856;2023-03-02T15:04:40;95928.41;;;10.85;61.84
42001;BME280;27689;48.390;10.856;2023-03-02T15:07:26;95926.34;;;10.71;62.79
42001;BME280;27689;48.390;10.856;2023-03-02T15:10:17;95922.16;;;10.78;62.77
42001;BME280;27689;48.390;10.856;2023-03-02T15:13:02;95924.69;;;10.70;63.19
42001;BME280;27689;48.390;10.856;2023-03-02T15:15:46;95925.63;;;10.43;63.31
42001;BME280;27689;48.390;10.856;2023-03-02T15:18:29;95932.03;;;10.13;65.17
42001;BME280;27689;48.390;10.856;2023-03-02T15:21:17;95932.69;;;10.15;65.61
42001;BME280;27689;48.390;10.856;2023-03-02T15:24:02;95937.09;;;9.97;64.88
42001;BME280;27689;48.390;10.856;2023-03-02T15:26:47;95935.59;;;9.67;65.99
42001;BME280;27689;48.390;10.856;2023-03-02T15:29:31;95932.81;;;9.78;65.87
42001;BME280;27689;48.390;10.856;2023-03-02T15:32:15;95939.22;;;9.84;65.45
42001;BME280;27689;48.390;10.856;2023-03-02T15:34:59;95943.16;;;9.43;66.32
42001;BME280;27689;48.390;10.856;2023-03-02T15:37:43;95942.41;;;9.23;68.06
42001;BME280;27689;48.390;10.856;2023-03-02T15:40:28;95939.50;;;9.26;67.72
42001;BME280;27689;48.390;10.856;2023-03-02T15:43:12;95947.53;;;9.05;69.17